createdAt,value
2018-11-12T01:29:38.322Z,1010.95
2018-11-12T01:29:38.900Z,1010.94
2018-11-12T01:29:39.499Z,1010.90
2018-11-12T01:29:40.097Z,1010.90
2018-11-12T01:29:40.698Z,1010.92
2018-11-12T01:29:41.297Z,1010.92
2018-11-12T01:29:41.897Z,1010.92
2018-11-12T01:30:35.976Z,1010.88
2018-11-12T01:30:36.551Z,1010.88
2018-11-12T01:30:37.151Z,1010.85
2018-11-12T01:30:37.751Z,1010.86
2018-11-12T01:30:38.351Z,1010.87
2018-11-12T01:30:38.950Z,1010.89
2018-11-12T01:30:39.550Z,1010.87
2018-11-12T01:31:33.608Z,1010.85
2018-11-12T01:31:34.205Z,1010.86
2018-11-12T01:31:34.807Z,1010.82
2018-11-12T01:31:35.404Z,1010.86
2018-11-12T01:31:36.002Z,1010.84
2018-11-12T01:31:36.602Z,1010.84
2018-11-12T01:31:37.203Z,1010.83
2018-11-12T01:32:31.259Z,1010.83
2018-11-12T01:32:31.859Z,1010.86
2018-11-12T01:32:32.457Z,1010.80
2018-11-12T01:32:33.056Z,1010.82
2018-11-12T01:32:33.655Z,1010.84
2018-11-12T01:32:34.256Z,1010.82
2018-11-12T01:32:34.855Z,1010.86
2018-11-12T01:33:28.913Z,1010.86
2018-11-12T01:33:29.508Z,1010.85
2018-11-12T01:33:30.108Z,1010.85
2018-11-12T01:33:30.708Z,1010.86
2018-11-12T01:33:31.307Z,1010.87
2018-11-12T01:33:31.907Z,1010.86
2018-11-12T01:33:32.506Z,1010.85
2018-11-12T01:34:26.563Z,1010.85
2018-11-12T01:34:27.160Z,1010.85
2018-11-12T01:34:27.760Z,1010.86
2018-11-12T01:34:28.359Z,1010.87
2018-11-12T01:34:28.960Z,1010.83
2018-11-12T01:34:29.558Z,1010.88
2018-11-12T01:34:30.158Z,1010.86
2018-11-12T01:35:24.237Z,1010.90
2018-11-12T01:35:24.812Z,1010.87
2018-11-12T01:35:25.412Z,1010.87
2018-11-12T01:35:26.011Z,1010.87
2018-11-12T01:35:26.611Z,1010.85
2018-11-12T01:35:27.211Z,1010.83
2018-11-12T01:35:27.810Z,1010.85
2018-11-12T01:36:21.867Z,1010.87
2018-11-12T01:36:22.467Z,1010.87
2018-11-12T01:36:23.064Z,1010.82
2018-11-12T01:36:23.663Z,1010.88
2018-11-12T01:36:24.263Z,1010.87
2018-11-12T01:36:24.866Z,1010.87
2018-11-12T01:36:25.463Z,1010.85
2018-11-12T01:37:19.519Z,1010.91
2018-11-12T01:37:20.116Z,1010.87
2018-11-12T01:37:20.715Z,1010.86
2018-11-12T01:37:21.315Z,1010.87
2018-11-12T01:37:21.915Z,1010.86
2018-11-12T01:37:22.515Z,1010.87
2018-11-12T01:37:23.115Z,1010.92
2018-11-12T01:38:16.661Z,1010.89
2018-11-12T01:38:17.259Z,1010.90
2018-11-12T01:38:17.857Z,1010.87
2018-11-12T01:38:18.457Z,1010.90
2018-11-12T01:38:19.057Z,1010.88
2018-11-12T01:38:19.657Z,1010.88
2018-11-12T01:38:20.257Z,1010.90
2018-11-12T01:38:20.856Z,1010.89
2018-11-12T01:39:14.824Z,1010.91
2018-11-12T01:39:15.427Z,1010.91
2018-11-12T01:39:16.021Z,1010.93
2018-11-12T01:39:16.620Z,1010.89
2018-11-12T01:39:17.219Z,1010.92
2018-11-12T01:39:17.823Z,1010.92
2018-11-12T01:39:18.420Z,1010.95
2018-11-12T01:40:32.465Z,1010.94
2018-11-12T01:40:33.041Z,1010.94
2018-11-12T01:40:33.640Z,1010.94
2018-11-12T01:40:34.244Z,1010.92
2018-11-12T01:40:34.840Z,1010.94
2018-11-12T01:40:35.441Z,1010.94
2018-11-12T01:40:36.040Z,1010.94
2018-11-12T01:41:30.094Z,1010.92
2018-11-12T01:41:30.692Z,1010.93
2018-11-12T01:41:31.291Z,1010.94
2018-11-12T01:41:31.891Z,1010.97
2018-11-12T01:41:32.492Z,1010.93
2018-11-12T01:41:33.091Z,1010.96
2018-11-12T01:41:33.690Z,1010.94
2018-11-12T01:42:27.747Z,1010.92
2018-11-12T01:42:28.344Z,1010.95
2018-11-12T01:42:28.944Z,1010.93
2018-11-12T01:42:29.546Z,1010.91
2018-11-12T01:42:30.144Z,1010.92
2018-11-12T01:42:30.744Z,1010.91
2018-11-12T01:42:31.342Z,1010.93
2018-11-12T01:43:25.399Z,1010.97
2018-11-12T01:43:25.996Z,1010.92
2018-11-12T01:43:26.595Z,1010.94
2018-11-12T01:43:27.196Z,1010.92
2018-11-12T01:43:27.796Z,1010.92
2018-11-12T01:43:28.394Z,1010.94
2018-11-12T01:43:28.996Z,1010.94
2018-11-12T01:44:23.052Z,1010.94
2018-11-12T01:44:23.648Z,1010.94
2018-11-12T01:44:24.247Z,1010.91
2018-11-12T01:44:24.847Z,1010.90
2018-11-12T01:44:25.447Z,1010.92
2018-11-12T01:44:26.046Z,1010.95
2018-11-12T01:44:26.647Z,1010.93
2018-11-12T01:45:20.822Z,1010.91
2018-11-12T01:45:21.322Z,1010.92
2018-11-12T01:45:21.923Z,1010.91
2018-11-12T01:45:22.525Z,1010.94
2018-11-12T01:45:23.122Z,1010.91
2018-11-12T01:45:23.721Z,1010.91
2018-11-12T01:45:24.321Z,1010.90
2018-11-12T01:46:18.353Z,1010.92
2018-11-12T01:46:18.951Z,1010.92
2018-11-12T01:46:19.556Z,1010.91
2018-11-12T01:46:20.150Z,1010.93
2018-11-12T01:46:20.750Z,1010.95
2018-11-12T01:46:21.350Z,1010.93
2018-11-12T01:46:21.948Z,1010.92
2018-11-12T01:47:16.006Z,1010.94
2018-11-12T01:47:16.603Z,1010.93
2018-11-12T01:47:17.206Z,1010.93
2018-11-12T01:47:17.803Z,1010.93
2018-11-12T01:47:18.402Z,1010.93
2018-11-12T01:47:19.002Z,1010.92
2018-11-12T01:47:19.603Z,1010.92
2018-11-12T01:48:13.151Z,1010.94
2018-11-12T01:48:13.748Z,1010.95
2018-11-12T01:48:14.344Z,1010.96
2018-11-12T01:48:14.943Z,1010.96
2018-11-12T01:48:15.542Z,1010.93
2018-11-12T01:48:16.143Z,1010.95
2018-11-12T01:48:16.746Z,1010.96
2018-11-12T01:48:17.342Z,1010.96
2018-11-12T01:49:11.310Z,1010.89
2018-11-12T01:49:11.912Z,1010.91
2018-11-12T01:49:12.508Z,1010.90
2018-11-12T01:49:13.107Z,1010.93
2018-11-12T01:49:13.705Z,1010.94
2018-11-12T01:49:14.307Z,1010.94
2018-11-12T01:49:14.906Z,1010.92
2018-11-12T01:50:28.949Z,1010.89
2018-11-12T01:50:29.525Z,1010.91
2018-11-12T01:50:30.128Z,1010.92
2018-11-12T01:50:30.725Z,1010.94
2018-11-12T01:50:31.326Z,1010.89
2018-11-12T01:50:31.926Z,1010.88
2018-11-12T01:50:32.525Z,1010.88
2018-11-12T01:51:26.581Z,1010.91
2018-11-12T01:51:27.178Z,1010.91
2018-11-12T01:51:27.778Z,1010.90
2018-11-12T01:51:28.378Z,1010.93
2018-11-12T01:51:28.978Z,1010.94
2018-11-12T01:51:29.578Z,1010.92
2018-11-12T01:51:30.177Z,1010.92
2018-11-12T01:52:24.232Z,1010.95
2018-11-12T01:52:24.829Z,1010.94
2018-11-12T01:52:25.430Z,1010.95
2018-11-12T01:52:26.029Z,1010.96
2018-11-12T01:52:26.628Z,1011.00
2018-11-12T01:52:27.229Z,1010.94
2018-11-12T01:52:27.829Z,1010.94
2018-11-12T01:53:21.885Z,1010.96
2018-11-12T01:53:22.481Z,1010.93
2018-11-12T01:53:23.080Z,1010.92
2018-11-12T01:53:23.681Z,1010.91
2018-11-12T01:53:24.281Z,1010.93
2018-11-12T01:53:24.880Z,1010.91
2018-11-12T01:53:25.480Z,1010.93
2018-11-12T01:54:19.536Z,1010.94
2018-11-12T01:54:20.132Z,1010.95
2018-11-12T01:54:20.733Z,1010.93
2018-11-12T01:54:21.339Z,1010.94
2018-11-12T01:54:21.932Z,1010.92
2018-11-12T01:54:22.533Z,1010.93
2018-11-12T01:54:23.132Z,1010.94
2018-11-12T01:55:17.215Z,1010.95
2018-11-12T01:55:17.783Z,1010.95
2018-11-12T01:55:18.383Z,1010.93
2018-11-12T01:55:18.982Z,1010.91
2018-11-12T01:55:19.583Z,1010.92
2018-11-12T01:55:20.186Z,1010.93
2018-11-12T01:55:20.783Z,1010.93
2018-11-12T01:56:14.843Z,1010.96
2018-11-12T01:56:15.438Z,1010.98
2018-11-12T01:56:16.040Z,1010.96
2018-11-12T01:56:16.638Z,1010.95
2018-11-12T01:56:17.236Z,1010.99
2018-11-12T01:56:17.835Z,1010.98
2018-11-12T01:56:18.436Z,1011.00
2018-11-12T01:57:12.491Z,1010.98
2018-11-12T01:57:13.089Z,1010.97
2018-11-12T01:57:13.687Z,1010.96
2018-11-12T01:57:14.288Z,1010.99
2018-11-12T01:57:14.887Z,1010.96
2018-11-12T01:57:15.488Z,1011.00
2018-11-12T01:57:16.094Z,1010.99
2018-11-12T01:58:10.146Z,1011.00
2018-11-12T01:58:10.743Z,1010.98
2018-11-12T01:58:11.340Z,1011.01
2018-11-12T01:58:11.940Z,1010.99
2018-11-12T01:58:12.540Z,1010.98
2018-11-12T01:58:13.141Z,1011.01
2018-11-12T01:58:13.742Z,1010.97
2018-11-12T01:59:07.793Z,1011.00
2018-11-12T01:59:08.394Z,1011.00
2018-11-12T01:59:08.995Z,1010.98
2018-11-12T01:59:09.594Z,1011.00
2018-11-12T01:59:10.191Z,1010.98
2018-11-12T01:59:10.792Z,1010.96
2018-11-12T01:59:11.390Z,1010.99
2018-11-12T02:00:05.447Z,1011.00
2018-11-12T02:00:06.043Z,1010.98
2018-11-12T02:00:06.643Z,1011.02
2018-11-12T02:00:07.242Z,1010.98
2018-11-12T02:00:07.844Z,1011.00
2018-11-12T02:00:08.445Z,1011.00
2018-11-12T02:00:09.043Z,1011.01
2018-11-12T02:01:03.125Z,1010.99
2018-11-12T02:01:03.697Z,1011.03
2018-11-12T02:01:04.295Z,1011.01
2018-11-12T02:01:04.894Z,1011.01
2018-11-12T02:01:05.496Z,1011.03
2018-11-12T02:01:06.095Z,1010.99
2018-11-12T02:01:06.697Z,1011.02
2018-11-12T02:02:00.749Z,1011.00
2018-11-12T02:02:01.347Z,1011.01
2018-11-12T02:02:01.947Z,1011.01
2018-11-12T02:02:02.547Z,1011.01
2018-11-12T02:02:03.147Z,1011.01
2018-11-12T02:02:03.747Z,1011.02
2018-11-12T02:02:04.347Z,1010.98
2018-11-12T02:02:58.401Z,1011.02
2018-11-12T02:02:59.002Z,1011.03
2018-11-12T02:02:59.599Z,1011.00
2018-11-12T02:03:00.198Z,1011.02
2018-11-12T02:03:00.801Z,1011.00
2018-11-12T02:03:01.397Z,1011.01
2018-11-12T02:03:01.998Z,1011.04
2018-11-12T02:03:56.054Z,1011.04
2018-11-12T02:03:56.650Z,1011.03
2018-11-12T02:03:57.274Z,1011.03
2018-11-12T02:03:57.849Z,1011.03
2018-11-12T02:03:58.451Z,1011.06
2018-11-12T02:03:59.049Z,1011.03
2018-11-12T02:03:59.649Z,1011.04
2018-11-12T02:04:53.744Z,1011.08
2018-11-12T02:04:54.431Z,1011.12
2018-11-12T02:04:54.964Z,1011.10
2018-11-12T02:04:55.575Z,1011.10
2018-11-12T02:04:56.117Z,1011.11
2018-11-12T02:04:56.806Z,1011.07
2018-11-12T02:04:57.372Z,1011.06
2018-11-12T02:05:51.378Z,1011.10
2018-11-12T02:05:51.953Z,1011.09
2018-11-12T02:05:52.557Z,1011.11
2018-11-12T02:05:53.152Z,1011.10
2018-11-12T02:05:53.753Z,1011.11
2018-11-12T02:05:54.354Z,1011.11
2018-11-12T02:05:54.953Z,1011.09
2018-11-12T02:06:49.007Z,1011.14
2018-11-12T02:06:49.605Z,1011.11
2018-11-12T02:06:50.205Z,1011.07
2018-11-12T02:06:50.805Z,1011.12
2018-11-12T02:06:51.405Z,1011.16
2018-11-12T02:06:52.004Z,1011.10
2018-11-12T02:06:52.605Z,1011.12
2018-11-12T02:07:46.662Z,1011.12
2018-11-12T02:07:47.257Z,1011.12
2018-11-12T02:07:47.856Z,1011.17
2018-11-12T02:07:48.460Z,1011.17
2018-11-12T02:07:49.057Z,1011.14
2018-11-12T02:07:49.662Z,1011.16
2018-11-12T02:07:50.259Z,1011.16
2018-11-12T02:08:44.380Z,1011.13
2018-11-12T02:08:44.998Z,1011.11
2018-11-12T02:08:45.585Z,1011.18
2018-11-12T02:08:46.128Z,1011.11
2018-11-12T02:08:46.726Z,1011.13
2018-11-12T02:08:47.405Z,1011.14
2018-11-12T02:08:48.017Z,1011.13
2018-11-12T02:09:41.962Z,1011.13
2018-11-12T02:09:42.560Z,1011.12
2018-11-12T02:09:43.161Z,1011.12
2018-11-12T02:09:43.759Z,1011.07
2018-11-12T02:09:44.360Z,1011.16
2018-11-12T02:09:44.964Z,1011.14
2018-11-12T02:09:45.559Z,1011.13
2018-11-12T02:10:39.637Z,1011.06
2018-11-12T02:10:40.213Z,1011.08
2018-11-12T02:10:40.813Z,1011.06
2018-11-12T02:10:41.413Z,1011.05
2018-11-12T02:10:42.012Z,1011.10
2018-11-12T02:10:42.615Z,1011.09
2018-11-12T02:10:43.213Z,1011.07
2018-11-12T02:11:37.268Z,1011.03
2018-11-12T02:11:37.864Z,1011.05
2018-11-12T02:11:38.464Z,1011.05
2018-11-12T02:11:39.065Z,1011.04
2018-11-12T02:11:39.665Z,1011.03
2018-11-12T02:11:40.263Z,1011.04
2018-11-12T02:11:40.862Z,1011.05
2018-11-12T02:12:34.919Z,1011.01
2018-11-12T02:12:35.515Z,1011.02
2018-11-12T02:12:36.114Z,1011.02
2018-11-12T02:12:36.715Z,1011.00
2018-11-12T02:12:37.314Z,1011.02
2018-11-12T02:12:37.914Z,1011.04
2018-11-12T02:12:38.514Z,1011.01
2018-11-12T02:13:32.571Z,1010.98
2018-11-12T02:13:33.171Z,1011.01
2018-11-12T02:13:33.769Z,1010.99
2018-11-12T02:13:34.366Z,1011.00
2018-11-12T02:13:34.968Z,1011.01
2018-11-12T02:13:35.570Z,1010.98
2018-11-12T02:13:36.167Z,1010.97
2018-11-12T02:14:30.246Z,1010.97
2018-11-12T02:14:30.823Z,1010.93
2018-11-12T02:14:31.499Z,1010.93
2018-11-12T02:14:32.036Z,1010.93
2018-11-12T02:14:32.711Z,1010.95
2018-11-12T02:14:33.332Z,1010.98
2018-11-12T02:14:33.879Z,1010.97
2018-11-12T02:15:27.895Z,1010.94
2018-11-12T02:15:28.471Z,1010.92
2018-11-12T02:15:29.070Z,1010.94
2018-11-12T02:15:29.671Z,1010.91
2018-11-12T02:15:30.271Z,1010.94
2018-11-12T02:15:30.871Z,1010.95
2018-11-12T02:15:31.472Z,1010.94
2018-11-12T02:16:25.528Z,1010.93
2018-11-12T02:16:26.124Z,1010.92
2018-11-12T02:16:26.724Z,1010.90
2018-11-12T02:16:27.323Z,1010.96
2018-11-12T02:16:27.922Z,1010.93
2018-11-12T02:16:28.521Z,1010.91
2018-11-12T02:16:29.121Z,1010.92
2018-11-12T02:17:23.177Z,1010.91
2018-11-12T02:17:23.778Z,1010.92
2018-11-12T02:17:24.374Z,1010.92
2018-11-12T02:17:24.974Z,1010.89
2018-11-12T02:17:25.574Z,1010.91
2018-11-12T02:17:26.173Z,1010.91
2018-11-12T02:17:26.778Z,1010.92
2018-11-12T02:18:20.830Z,1010.94
2018-11-12T02:18:21.427Z,1010.90
2018-11-12T02:18:22.030Z,1010.96
2018-11-12T02:18:22.626Z,1010.93
2018-11-12T02:18:23.226Z,1010.89
2018-11-12T02:18:23.826Z,1010.92
2018-11-12T02:18:24.425Z,1010.92
2018-11-12T02:19:18.481Z,1010.93
2018-11-12T02:19:19.078Z,1010.92
2018-11-12T02:19:19.681Z,1010.94
2018-11-12T02:19:20.278Z,1010.93
2018-11-12T02:19:20.876Z,1010.92
2018-11-12T02:19:21.478Z,1010.93
2018-11-12T02:19:22.077Z,1010.95
2018-11-12T02:20:16.133Z,1010.97
2018-11-12T02:20:16.729Z,1010.98
2018-11-12T02:20:17.331Z,1010.95
2018-11-12T02:20:17.935Z,1010.95
2018-11-12T02:20:18.528Z,1010.92
2018-11-12T02:20:19.127Z,1010.92
2018-11-12T02:20:19.727Z,1010.96
2018-11-12T02:21:13.806Z,1010.98
2018-11-12T02:21:14.382Z,1011.01
2018-11-12T02:21:14.984Z,1010.99
2018-11-12T02:21:15.581Z,1011.02
2018-11-12T02:21:16.181Z,1011.00
2018-11-12T02:21:16.781Z,1010.99
2018-11-12T02:21:17.382Z,1011.01
2018-11-12T02:22:11.438Z,1011.01
2018-11-12T02:22:12.034Z,1011.01
2018-11-12T02:22:12.633Z,1011.03
2018-11-12T02:22:13.233Z,1011.00
2018-11-12T02:22:13.835Z,1011.01
2018-11-12T02:22:14.435Z,1011.03
2018-11-12T02:22:15.034Z,1011.06
2018-11-12T02:23:09.089Z,1011.02
2018-11-12T02:23:09.685Z,1010.99
2018-11-12T02:23:10.284Z,1011.01
2018-11-12T02:23:10.885Z,1011.02
2018-11-12T02:23:11.490Z,1011.03
2018-11-12T02:23:12.084Z,1011.03
2018-11-12T02:23:12.687Z,1011.05
2018-11-12T02:24:06.740Z,1011.07
2018-11-12T02:24:07.336Z,1011.05
2018-11-12T02:24:07.938Z,1011.02
2018-11-12T02:24:08.537Z,1011.07
2018-11-12T02:24:09.135Z,1011.02
2018-11-12T02:24:09.736Z,1011.07
2018-11-12T02:24:10.337Z,1011.06
2018-11-12T02:25:04.391Z,1011.04
2018-11-12T02:25:04.988Z,1011.09
2018-11-12T02:25:05.588Z,1011.08
2018-11-12T02:25:06.187Z,1011.08
2018-11-12T02:25:06.791Z,1011.08
2018-11-12T02:25:07.388Z,1011.08
2018-11-12T02:25:07.987Z,1011.08
2018-11-12T02:26:02.068Z,1011.08
2018-11-12T02:26:02.642Z,1011.09
2018-11-12T02:26:03.241Z,1011.09
2018-11-12T02:26:03.840Z,1011.05
2018-11-12T02:26:04.439Z,1011.07
2018-11-12T02:26:05.040Z,1011.08
2018-11-12T02:26:05.640Z,1011.10
2018-11-12T02:26:59.694Z,1011.07
2018-11-12T02:27:00.291Z,1011.06
2018-11-12T02:27:00.890Z,1011.11
2018-11-12T02:27:01.492Z,1011.08
2018-11-12T02:27:02.092Z,1011.10
2018-11-12T02:27:02.691Z,1011.08
2018-11-12T02:27:03.292Z,1011.09
2018-11-12T02:27:57.349Z,1011.08
2018-11-12T02:27:57.943Z,1011.08
2018-11-12T02:27:58.549Z,1011.10
2018-11-12T02:27:59.142Z,1011.09
2018-11-12T02:27:59.742Z,1011.06
2018-11-12T02:28:00.344Z,1011.09
2018-11-12T02:28:00.944Z,1011.10
2018-11-12T02:28:54.997Z,1011.11
2018-11-12T02:28:55.595Z,1011.12
2018-11-12T02:28:56.194Z,1011.11
2018-11-12T02:28:56.795Z,1011.10
2018-11-12T02:28:57.394Z,1011.13
2018-11-12T02:28:57.994Z,1011.11
2018-11-12T02:28:58.594Z,1011.12
2018-11-12T02:29:52.649Z,1011.13
2018-11-12T02:29:53.246Z,1011.13
2018-11-12T02:29:53.849Z,1011.12
2018-11-12T02:29:54.446Z,1011.14
2018-11-12T02:29:55.046Z,1011.14
2018-11-12T02:29:55.665Z,1011.14
2018-11-12T02:29:56.245Z,1011.14
2018-11-12T02:30:50.323Z,1011.11
2018-11-12T02:30:50.902Z,1011.13
2018-11-12T02:30:51.499Z,1011.14
2018-11-12T02:30:52.100Z,1011.13
2018-11-12T02:30:52.699Z,1011.13
2018-11-12T02:30:53.302Z,1011.14
2018-11-12T02:30:53.900Z,1011.14
2018-11-12T02:31:47.954Z,1011.13
2018-11-12T02:31:48.551Z,1011.14
2018-11-12T02:31:49.152Z,1011.14
2018-11-12T02:31:49.752Z,1011.13
2018-11-12T02:31:50.350Z,1011.11
2018-11-12T02:31:50.954Z,1011.11
2018-11-12T02:31:51.550Z,1011.13
2018-11-12T02:32:45.607Z,1011.13
2018-11-12T02:32:46.202Z,1011.09
2018-11-12T02:32:46.801Z,1011.13
2018-11-12T02:32:47.400Z,1011.17
2018-11-12T02:32:48.000Z,1011.13
2018-11-12T02:32:48.601Z,1011.14
2018-11-12T02:32:49.200Z,1011.15
2018-11-12T02:33:43.259Z,1011.12
2018-11-12T02:33:43.854Z,1011.14
2018-11-12T02:33:44.453Z,1011.13
2018-11-12T02:33:45.056Z,1011.13
2018-11-12T02:33:45.654Z,1011.14
2018-11-12T02:33:46.253Z,1011.17
2018-11-12T02:33:46.853Z,1011.16
2018-11-12T02:34:40.909Z,1011.13
2018-11-12T02:34:41.505Z,1011.14
2018-11-12T02:34:42.104Z,1011.12
2018-11-12T02:34:42.705Z,1011.16
2018-11-12T02:34:43.305Z,1011.12
2018-11-12T02:34:43.905Z,1011.09
2018-11-12T02:34:44.505Z,1011.10
2018-11-12T02:35:38.596Z,1011.16
2018-11-12T02:35:39.157Z,1011.13
2018-11-12T02:35:39.760Z,1011.12
2018-11-12T02:35:40.358Z,1011.15
2018-11-12T02:35:40.958Z,1011.11
2018-11-12T02:35:41.560Z,1011.14
2018-11-12T02:35:42.154Z,1011.14
2018-11-12T02:36:36.212Z,1011.11
2018-11-12T02:36:36.809Z,1011.12
2018-11-12T02:36:37.409Z,1011.12
2018-11-12T02:36:38.008Z,1011.12
2018-11-12T02:36:38.608Z,1011.13
2018-11-12T02:36:39.209Z,1011.12
2018-11-12T02:36:39.808Z,1011.10
2018-11-12T02:37:33.863Z,1011.13
2018-11-12T02:37:34.461Z,1011.11
2018-11-12T02:37:35.060Z,1011.11
2018-11-12T02:37:35.660Z,1011.10
2018-11-12T02:37:36.259Z,1011.13
2018-11-12T02:37:36.858Z,1011.11
2018-11-12T02:37:37.463Z,1011.15
2018-11-12T02:38:31.516Z,1011.11
2018-11-12T02:38:32.112Z,1011.11
2018-11-12T02:38:32.712Z,1011.12
2018-11-12T02:38:33.313Z,1011.10
2018-11-12T02:38:33.911Z,1011.10
2018-11-12T02:38:34.512Z,1011.10
2018-11-12T02:38:35.112Z,1011.07
2018-11-12T02:39:29.168Z,1011.10
2018-11-12T02:39:29.765Z,1011.06
2018-11-12T02:39:30.364Z,1011.07
2018-11-12T02:39:30.964Z,1011.11
2018-11-12T02:39:31.567Z,1011.14
2018-11-12T02:39:32.164Z,1011.10
2018-11-12T02:39:32.763Z,1011.07
2018-11-12T02:40:26.819Z,1011.12
2018-11-12T02:40:27.416Z,1011.10
2018-11-12T02:40:28.015Z,1011.11
2018-11-12T02:40:28.614Z,1011.13
2018-11-12T02:40:29.214Z,1011.12
2018-11-12T02:40:29.816Z,1011.07
2018-11-12T02:40:30.416Z,1011.10
2018-11-12T02:41:24.492Z,1011.13
2018-11-12T02:41:25.067Z,1011.12
2018-11-12T02:41:25.672Z,1011.16
2018-11-12T02:41:26.267Z,1011.14
2018-11-12T02:41:26.867Z,1011.13
2018-11-12T02:41:27.467Z,1011.09
2018-11-12T02:41:28.066Z,1011.11
2018-11-12T02:42:22.152Z,1011.13
2018-11-12T02:42:22.725Z,1011.13
2018-11-12T02:42:23.323Z,1011.16
2018-11-12T02:42:23.927Z,1011.13
2018-11-12T02:42:24.523Z,1011.10
2018-11-12T02:42:25.128Z,1011.12
2018-11-12T02:42:25.723Z,1011.11
2018-11-12T02:43:19.777Z,1011.12
2018-11-12T02:43:20.376Z,1011.13
2018-11-12T02:43:20.975Z,1011.13
2018-11-12T02:43:21.575Z,1011.13
2018-11-12T02:43:22.176Z,1011.15
2018-11-12T02:43:22.775Z,1011.14
2018-11-12T02:43:23.381Z,1011.16
2018-11-12T02:44:17.431Z,1011.08
2018-11-12T02:44:18.028Z,1011.12
2018-11-12T02:44:18.627Z,1011.15
2018-11-12T02:44:19.226Z,1011.12
2018-11-12T02:44:19.827Z,1011.10
2018-11-12T02:44:20.426Z,1011.15
2018-11-12T02:44:21.026Z,1011.11
2018-11-12T02:45:15.082Z,1011.13
2018-11-12T02:45:15.680Z,1011.11
2018-11-12T02:45:16.281Z,1011.12
2018-11-12T02:45:16.880Z,1011.12
2018-11-12T02:45:17.480Z,1011.12
2018-11-12T02:45:18.078Z,1011.15
2018-11-12T02:45:18.678Z,1011.13
2018-11-12T02:46:12.733Z,1011.11
2018-11-12T02:46:13.330Z,1011.07
2018-11-12T02:46:13.932Z,1011.09
2018-11-12T02:46:14.532Z,1011.10
2018-11-12T02:46:15.130Z,1011.10
2018-11-12T02:46:15.729Z,1011.10
2018-11-12T02:46:16.330Z,1011.09
2018-11-12T02:47:10.410Z,1011.09
2018-11-12T02:47:10.984Z,1011.08
2018-11-12T02:47:11.582Z,1011.11
2018-11-12T02:47:12.182Z,1011.12
2018-11-12T02:47:12.782Z,1011.06
2018-11-12T02:47:13.384Z,1011.08
2018-11-12T02:47:13.983Z,1011.10
2018-11-12T02:48:08.038Z,1011.12
2018-11-12T02:48:08.635Z,1011.12
2018-11-12T02:48:09.234Z,1011.13
2018-11-12T02:48:09.834Z,1011.13
2018-11-12T02:48:10.434Z,1011.13
2018-11-12T02:48:11.034Z,1011.09
2018-11-12T02:48:11.633Z,1011.10
2018-11-12T02:49:05.690Z,1011.15
2018-11-12T02:49:06.285Z,1011.13
2018-11-12T02:49:06.885Z,1011.14
2018-11-12T02:49:07.486Z,1011.17
2018-11-12T02:49:08.090Z,1011.14
2018-11-12T02:49:08.689Z,1011.11
2018-11-12T02:49:09.286Z,1011.14
2018-11-12T02:50:03.339Z,1011.15
2018-11-12T02:50:03.938Z,1011.19
2018-11-12T02:50:04.538Z,1011.17
2018-11-12T02:50:05.137Z,1011.18
2018-11-12T02:50:05.738Z,1011.16
2018-11-12T02:50:06.338Z,1011.19
2018-11-12T02:50:06.937Z,1011.18
2018-11-12T02:51:00.993Z,1011.22
2018-11-12T02:51:01.592Z,1011.22
2018-11-12T02:51:02.205Z,1011.22
2018-11-12T02:51:02.786Z,1011.24
2018-11-12T02:51:03.388Z,1011.22
2018-11-12T02:51:03.989Z,1011.24
2018-11-12T02:51:04.590Z,1011.25
2018-11-12T02:51:58.671Z,1011.26
2018-11-12T02:51:59.240Z,1011.24
2018-11-12T02:51:59.840Z,1011.29
2018-11-12T02:52:00.440Z,1011.27
2018-11-12T02:52:01.045Z,1011.26
2018-11-12T02:52:01.640Z,1011.29
2018-11-12T02:52:02.240Z,1011.30
2018-11-12T02:52:56.294Z,1011.34
2018-11-12T02:52:56.893Z,1011.34
2018-11-12T02:52:57.497Z,1011.33
2018-11-12T02:52:58.092Z,1011.35
2018-11-12T02:52:58.692Z,1011.35
2018-11-12T02:52:59.293Z,1011.32
2018-11-12T02:52:59.892Z,1011.33
2018-11-12T02:53:53.949Z,1011.37
2018-11-12T02:53:54.542Z,1011.35
2018-11-12T02:53:55.145Z,1011.36
2018-11-12T02:53:55.744Z,1011.34
2018-11-12T02:53:56.343Z,1011.37
2018-11-12T02:53:56.943Z,1011.37
2018-11-12T02:53:57.544Z,1011.37
2018-11-12T02:54:51.599Z,1011.36
2018-11-12T02:54:52.198Z,1011.36
2018-11-12T02:54:52.797Z,1011.38
2018-11-12T02:54:53.396Z,1011.39
2018-11-12T02:54:53.996Z,1011.38
2018-11-12T02:54:54.603Z,1011.38
2018-11-12T02:54:55.193Z,1011.37
2018-11-12T02:55:49.251Z,1011.33
2018-11-12T02:55:49.850Z,1011.34
2018-11-12T02:55:50.447Z,1011.37
2018-11-12T02:55:51.049Z,1011.36
2018-11-12T02:55:51.648Z,1011.37
2018-11-12T02:55:52.247Z,1011.34
2018-11-12T02:55:52.846Z,1011.39
2018-11-12T02:56:46.926Z,1011.37
2018-11-12T02:56:47.498Z,1011.36
2018-11-12T02:56:48.101Z,1011.33
2018-11-12T02:56:48.699Z,1011.33
2018-11-12T02:56:49.301Z,1011.35
2018-11-12T02:56:49.920Z,1011.35
2018-11-12T02:56:50.499Z,1011.35
2018-11-12T02:57:44.559Z,1011.33
2018-11-12T02:57:45.151Z,1011.33
2018-11-12T02:57:45.752Z,1011.34
2018-11-12T02:57:46.381Z,1011.33
2018-11-12T02:57:46.950Z,1011.38
2018-11-12T02:57:47.553Z,1011.37
2018-11-12T02:57:48.151Z,1011.36
2018-11-12T02:58:42.209Z,1011.38
2018-11-12T02:58:42.804Z,1011.36
2018-11-12T02:58:43.404Z,1011.33
2018-11-12T02:58:44.003Z,1011.37
2018-11-12T02:58:44.602Z,1011.37
2018-11-12T02:58:45.202Z,1011.36
2018-11-12T02:58:45.802Z,1011.33
2018-11-12T02:59:39.857Z,1011.39
2018-11-12T02:59:40.455Z,1011.35
2018-11-12T02:59:41.054Z,1011.36
2018-11-12T02:59:41.656Z,1011.32
2018-11-12T02:59:42.259Z,1011.33
2018-11-12T02:59:42.854Z,1011.31
2018-11-12T02:59:43.454Z,1011.35
2018-11-12T03:00:37.508Z,1011.30
2018-11-12T03:00:38.108Z,1011.34
2018-11-12T03:00:38.709Z,1011.32
2018-11-12T03:00:39.304Z,1011.34
2018-11-12T03:00:39.912Z,1011.33
2018-11-12T03:00:40.506Z,1011.34
2018-11-12T03:00:41.105Z,1011.35
2018-11-12T03:01:46.858Z,1011.36
2018-11-12T03:01:47.440Z,1011.38
2018-11-12T03:01:48.030Z,1011.34
2018-11-12T03:01:48.632Z,1011.37
2018-11-12T03:01:49.235Z,1011.35
2018-11-12T03:01:49.831Z,1011.34
2018-11-12T03:01:50.432Z,1011.35
2018-11-12T03:02:44.487Z,1011.40
2018-11-12T03:02:45.083Z,1011.38
2018-11-12T03:02:45.684Z,1011.40
2018-11-12T03:02:46.285Z,1011.38
2018-11-12T03:02:46.882Z,1011.38
2018-11-12T03:02:47.483Z,1011.39
2018-11-12T03:02:48.081Z,1011.41
2018-11-12T03:03:42.138Z,1011.42
2018-11-12T03:03:42.736Z,1011.42
2018-11-12T03:03:43.334Z,1011.39
2018-11-12T03:03:43.936Z,1011.40
2018-11-12T03:03:44.542Z,1011.39
2018-11-12T03:03:45.135Z,1011.39
2018-11-12T03:03:45.737Z,1011.35
2018-11-12T03:04:39.791Z,1011.41
2018-11-12T03:04:40.387Z,1011.40
2018-11-12T03:04:40.986Z,1011.43
2018-11-12T03:04:41.587Z,1011.41
2018-11-12T03:04:42.187Z,1011.43
2018-11-12T03:04:42.786Z,1011.40
2018-11-12T03:04:43.387Z,1011.39
2018-11-12T03:05:37.443Z,1011.40
2018-11-12T03:05:38.038Z,1011.43
2018-11-12T03:05:38.640Z,1011.41
2018-11-12T03:05:39.238Z,1011.43
2018-11-12T03:05:39.837Z,1011.41
2018-11-12T03:05:40.440Z,1011.40
2018-11-12T03:05:41.042Z,1011.40
2018-11-12T03:06:35.093Z,1011.42
2018-11-12T03:06:35.691Z,1011.43
2018-11-12T03:06:36.291Z,1011.41
2018-11-12T03:06:36.889Z,1011.39
2018-11-12T03:06:37.492Z,1011.41
2018-11-12T03:06:38.091Z,1011.41
2018-11-12T03:06:38.688Z,1011.42
2018-11-12T03:07:32.793Z,1011.45
2018-11-12T03:07:33.359Z,1011.41
2018-11-12T03:07:34.050Z,1011.44
2018-11-12T03:07:34.567Z,1011.42
2018-11-12T03:07:35.248Z,1011.44
2018-11-12T03:07:35.845Z,1011.43
2018-11-12T03:07:36.480Z,1011.45
2018-11-12T03:08:30.398Z,1011.39
2018-11-12T03:08:30.994Z,1011.38
2018-11-12T03:08:31.594Z,1011.42
2018-11-12T03:08:32.196Z,1011.44
2018-11-12T03:08:32.794Z,1011.41
2018-11-12T03:08:33.394Z,1011.45
2018-11-12T03:08:33.991Z,1011.43
2018-11-12T03:09:28.047Z,1011.39
2018-11-12T03:09:28.644Z,1011.38
2018-11-12T03:09:29.253Z,1011.40